Time;durP1;ratioP1;P1;durP2;ratioP2;P2;SDS_P1;SDS_P2;PMS_P1;PMS_P2;Temp;Humidity;BMP_temperature;BMP_pressure;BME280_temperature;BME280_humidity;BME280_pressure;Samples;Min_cycle;Max_cycle;Signal;HPM_P1;HPM_P2
2021/12/28 00:00:47;;;;;;;;;;;-2.90;1.00;;;;;;5021223;28;19925;-82
2021/12/28 00:03:15;;;;;;;;;;;-2.60;1.00;;;;;;5020337;28;19937;-82
2021/12/28 00:05:42;;;;;;;;;;;-2.60;1.00;;;;;;5021353;28;19939;-81
2021/12/28 00:08:08;;;;;;;;;;;-2.60;1.00;;;;;;5024452;28;19961;-82
2021/12/28 00:10:35;;;;;;;;;;;-2.70;1.00;;;;;;5025570;28;19932;-82
2021/12/28 00:13:01;;;;;;;;;;;-2.70;1.00;;;;;;5026729;28;20383;-82
2021/12/28 00:15:47;;;;;;;;;;;-2.40;1.00;;;;;;5027389;28;19925;-81
2021/12/28 00:18:13;;;;;;;;;;;-2.70;1.00;;;;;;5027637;28;19925;-82
2021/12/28 00:20:42;;;;;;;;;;;-2.70;1.00;;;;;;5027705;28;19926;-82
2021/12/28 00:23:13;;;;;;;;;;;-2.70;1.00;;;;;;5027253;28;19929;-82
2021/12/28 00:25:39;;;;;;;;;;;-2.70;1.00;;;;;;5030394;28;19925;-80
2021/12/28 00:28:06;;;;;;;;;;;-2.70;1.00;;;;;;5040085;28;19932;-80
2021/12/28 00:30:33;;;;;;;;;;;-2.70;1.00;;;;;;5040448;28;19940;-80
2021/12/28 00:33:00;;;;;;;;;;;-2.80;1.00;;;;;;5038221;28;19913;-81
2021/12/28 00:35:27;;;;;;;;;;;-2.90;1.00;;;;;;5039536;28;19926;-81
2021/12/28 00:37:58;;;;;;;;;;;-2.80;3.80;;;;;;5038167;28;20411;-81
2021/12/28 00:40:24;;;;;;;;;;;-2.80;1.00;;;;;;5039330;28;19951;-81
2021/12/28 00:42:51;;;;;;;;;;;-2.30;6.70;;;;;;5041005;28;19910;-80
2021/12/28 00:45:18;;;;;;;;;;;-2.90;11.10;;;;;;5040078;28;19917;-81
2021/12/28 00:47:44;;;;;;;;;;;-2.90;22.00;;;;;;5038840;28;19952;-82
2021/12/28 00:50:12;;;;;;;;;;;-2.80;25.10;;;;;;5033144;28;19925;-82
2021/12/28 00:52:39;;;;;;;;;;;-2.90;16.10;;;;;;5028178;28;20335;-81
2021/12/28 00:55:07;;;;;;;;;;;-2.90;31.90;;;;;;5026592;28;20331;-81
2021/12/28 00:57:34;;;;;;;;;;;-2.90;35.10;;;;;;5026700;28;19945;-82
2021/12/28 01:00:01;;;;;;;;;;;-3.30;29.40;;;;;;5027137;28;20295;-82
2021/12/28 01:02:27;;;;;;;;;;;-2.40;37.90;;;;;;5027096;28;19925;-82
2021/12/28 01:04:54;;;;;;;;;;;-2.90;40.30;;;;;;5026455;28;19957;-82
2021/12/28 01:07:20;;;;;;;;;;;-2.90;41.10;;;;;;5026636;28;20340;-81
2021/12/28 01:09:46;;;;;;;;;;;-2.90;29.80;;;;;;5026129;28;19926;-81
2021/12/28 01:12:14;;;;;;;;;;;-2.90;28.00;;;;;;5026123;28;19936;-81
2021/12/28 01:14:41;;;;;;;;;;;-2.90;26.80;;;;;;5026306;28;19964;-81
2021/12/28 01:17:08;;;;;;;;;;;-2.80;20.80;;;;;;5025428;28;20297;-81
2021/12/28 01:19:34;;;;;;;;;;;-2.90;22.10;;;;;;5025599;28;19965;-82
2021/12/28 01:22:01;;;;;;;;;;;-2.90;24.30;;;;;;5026404;28;19926;-82
2021/12/28 01:24:28;;;;;;;;;;;-2.90;31.60;;;;;;5027370;28;19933;-81
2021/12/28 01:26:54;;;;;;;;;;;-2.90;35.90;;;;;;5026959;28;19925;-82
2021/12/28 01:29:22;;;;;;;;;;;-3.00;33.00;;;;;;5026429;28;19932;-81
2021/12/28 01:31:49;;;;;;;;;;;-3.10;39.20;;;;;;5025715;28;20415;-81
2021/12/28 01:34:15;;;;;;;;;;;-3.00;50.30;;;;;;5026810;28;19933;-81
2021/12/28 01:36:42;;;;;;;;;;;-3.00;53.70;;;;;;5026388;28;19933;-81
2021/12/28 01:39:09;;;;;;;;;;;-3.00;50.60;;;;;;5026291;28;20001;-81
2021/12/28 01:41:35;;;;;;;;;;;-3.00;55.80;;;;;;5029312;28;19913;-81
2021/12/28 01:44:05;;;;;;;;;;;-2.90;43.80;;;;;;5035923;28;20391;-80
2021/12/28 01:46:33;;;;;;;;;;;-2.60;33.70;;;;;;5019234;28;19953;-82
2021/12/28 01:49:00;;;;;;;;;;;-3.00;28.20;;;;;;5023598;28;19930;-82
2021/12/28 01:51:27;;;;;;;;;;;-2.90;30.20;;;;;;5026518;28;20004;-81
2021/12/28 01:53:55;;;;;;;;;;;-2.70;29.30;;;;;;5025217;28;20499;-82
2021/12/28 01:56:23;;;;;;;;;;;-2.90;32.40;;;;;;5023107;28;19932;-82
2021/12/28 01:58:50;;;;;;;;;;;-2.90;31.10;;;;;;5026352;28;19930;-83
2021/12/28 02:01:17;;;;;;;;;;;-3.00;23.70;;;;;;5026623;28;19926;-82
2021/12/28 02:03:45;;;;;;;;;;;-3.00;33.00;;;;;;5025436;28;19933;-82
2021/12/28 02:06:12;;;;;;;;;;;-2.90;33.00;;;;;;5025555;28;19925;-82
2021/12/28 02:08:40;;;;;;;;;;;-2.90;25.00;;;;;;5025067;28;20384;-82
2021/12/28 02:11:07;;;;;;;;;;;-2.90;28.80;;;;;;5025964;28;19932;-82
2021/12/28 02:13:33;;;;;;;;;;;-2.90;26.50;;;;;;5024481;28;19934;-81
2021/12/28 02:16:00;;;;;;;;;;;-3.00;26.60;;;;;;5024732;28;19953;-81
2021/12/28 02:18:27;;;;;;;;;;;-3.00;29.90;;;;;;5024125;28;19926;-81
2021/12/28 02:20:56;;;;;;;;;;;-3.10;35.10;;;;;;5023648;28;19973;-81
2021/12/28 02:23:23;;;;;;;;;;;-3.10;51.30;;;;;;5020346;28;19926;-81
2021/12/28 02:25:50;;;;;;;;;;;-3.10;58.10;;;;;;5018634;28;19929;-80
2021/12/28 02:28:16;;;;;;;;;;;-3.10;65.70;;;;;;5024144;28;19957;-81
2021/12/28 02:30:44;;;;;;;;;;;-2.40;69.70;;;;;;5028957;28;19961;-79
2021/12/28 02:33:10;;;;;;;;;;;-3.10;65.50;;;;;;5037488;28;20422;-79
2021/12/28 02:35:38;;;;;;;;;;;-3.10;57.20;;;;;;5037673;28;19924;-79
2021/12/28 02:38:07;;;;;;;;;;;-3.20;58.10;;;;;;5036849;28;19921;-80
2021/12/28 02:40:34;;;;;;;;;;;-3.10;69.80;;;;;;5031177;28;19945;-81
2021/12/28 02:43:02;;;;;;;;;;;-3.20;57.80;;;;;;5025114;28;19953;-82
2021/12/28 02:45:30;;;;;;;;;;;-3.20;57.70;;;;;;5025135;28;19992;-81
2021/12/28 02:47:56;;;;;;;;;;;-3.20;61.60;;;;;;5025154;28;19926;-82
2021/12/28 02:50:24;;;;;;;;;;;-3.20;69.80;;;;;;5025076;28;19937;-81
2021/12/28 02:52:50;;;;;;;;;;;-3.20;63.00;;;;;;5025454;28;19976;-81
2021/12/28 02:55:20;;;;;;;;;;;-3.20;56.50;;;;;;5025384;28;19934;-80
2021/12/28 02:57:47;;;;;;;;;;;-3.10;48.70;;;;;;5025391;28;19933;-81
2021/12/28 03:00:14;;;;;;;;;;;-3.20;41.50;;;;;;5025372;28;20419;-81
2021/12/28 03:02:41;;;;;;;;;;;-3.20;47.60;;;;;;5024471;28;19980;-82
2021/12/28 03:05:07;;;;;;;;;;;-3.20;45.60;;;;;;5023812;28;19925;-81
2021/12/28 03:07:34;;;;;;;;;;;-3.20;52.10;;;;;;5024566;28;19925;-81
2021/12/28 03:10:00;;;;;;;;;;;-3.20;55.30;;;;;;5023071;28;19926;-80
2021/12/28 03:12:28;;;;;;;;;;;-3.20;54.20;;;;;;5023964;28;19932;-81
2021/12/28 03:14:54;;;;;;;;;;;-3.40;52.90;;;;;;5023482;28;19956;-80
2021/12/28 03:17:21;;;;;;;;;;;-3.70;55.20;;;;;;5022987;28;19991;-80
2021/12/28 03:19:47;;;;;;;;;;;-3.20;59.20;;;;;;5023285;28;20376;-82
2021/12/28 03:22:14;;;;;;;;;;;-3.30;61.70;;;;;;5022389;28;19966;-80
2021/12/28 03:24:40;;;;;;;;;;;-3.10;64.70;;;;;;5022582;28;19961;-80
2021/12/28 03:27:07;;;;;;;;;;;-3.30;68.90;;;;;;5022872;28;19947;-81
2021/12/28 03:29:34;;;;;;;;;;;-3.30;59.80;;;;;;5022819;28;19925;-81
2021/12/28 03:32:01;;;;;;;;;;;-3.40;51.30;;;;;;5023228;28;19937;-80
2021/12/28 03:34:27;;;;;;;;;;;-3.30;55.90;;;;;;5022431;28;19925;-80
2021/12/28 03:36:54;;;;;;;;;;;-3.30;54.50;;;;;;5027872;28;19961;-80
2021/12/28 03:39:20;;;;;;;;;;;-3.30;54.10;;;;;;5031479;28;19925;-80
2021/12/28 03:41:47;;;;;;;;;;;-3.30;45.30;;;;;;5030938;28;19936;-81
2021/12/28 03:44:14;;;;;;;;;;;-3.30;48.10;;;;;;5031751;28;19925;-81
2021/12/28 03:49:48;;;;;;;;;;;-3.20;48.20;;;;;;5017382;28;19925;-84
2021/12/28 03:55:25;;;;;;;;;;;-3.20;29.70;;;;;;5011800;28;20012;-85
2021/12/28 03:57:56;;;;;;;;;;;-3.30;20.60;;;;;;5023988;28;20358;-85
2021/12/28 04:03:58;;;;;;;;;;;-3.30;27.40;;;;;;4964796;29;19961;-85
2021/12/28 04:06:34;;;;;;;;;;;-3.40;43.90;;;;;;4963696;28;19973;-86
2021/12/28 04:21:40;;;;;;;;;;;-2.50;43.00;;;;;;4942847;29;19992;-84
2021/12/28 05:23:38;;;;;;;;;;;-1.80;1.00;;;;;;4903834;29;19922;-85
2021/12/28 05:41:48;;;;;;;;;;;-1.90;1.00;;;;;;4895079;29;19927;-84
2021/12/28 05:44:25;;;;;;;;;;;-3.10;1.00;;;;;;4939688;29;19930;-85
2021/12/28 05:53:07;;;;;;;;;;;-2.60;1.00;;;;;;4940839;29;19923;-86
2021/12/28 05:55:58;;;;;;;;;;;-2.60;1.00;;;;;;4968502;28;19925;-87
2021/12/28 06:01:39;;;;;;;;;;;-2.50;1.00;;;;;;5019192;28;20365;-83
2021/12/28 06:04:15;;;;;;;;;;;-0.70;1.00;;;;;;5021037;28;19925;-85
2021/12/28 06:06:44;;;;;;;;;;;-1.80;1.00;;;;;;5027402;28;20027;-84
2021/12/28 06:12:25;;;;;;;;;;;-0.70;1.00;;;;;;4953326;29;19923;-85
2021/12/28 06:15:33;;;;;;;;;;;-2.50;1.00;;;;;;4946324;29;19914;-84
2021/12/28 06:20:44;;;;;;;;;;;-2.80;1.00;;;;;;5030964;28;19910;-84
2021/12/28 06:23:37;;;;;;;;;;;-2.50;1.00;;;;;;5038065;28;19944;-83
2021/12/28 06:32:36;;;;;;;;;;;-3.10;1.00;;;;;;4916016;29;19930;-86
2021/12/28 06:38:38;;;;;;;;;;;-1.70;1.00;;;;;;4984784;28;20008;-86
2021/12/28 06:44:29;;;;;;;;;;;-2.30;1.00;;;;;;5026933;28;19921;-84
2021/12/28 06:47:16;;;;;;;;;;;-2.30;1.00;;;;;;5037060;28;19925;-85
2021/12/28 07:13:23;;;;;;;;;;;-2.30;1.00;;;;;;4999526;23;20308;-81
2021/12/28 07:15:49;;;;;;;;;;;-2.70;3.30;;;;;;5023773;28;20307;-81
2021/12/28 07:18:17;;;;;;;;;;;-1.90;1.00;;;;;;5035485;28;19921;-79
2021/12/28 07:20:43;;;;;;;;;;;-2.00;1.00;;;;;;5038991;28;19933;-82
2021/12/28 07:23:10;;;;;;;;;;;-1.70;1.00;;;;;;5029051;28;19952;-82
2021/12/28 07:25:36;;;;;;;;;;;-2.10;1.00;;;;;;5028326;28;19953;-82
2021/12/28 07:28:03;;;;;;;;;;;-2.10;1.00;;;;;;5035197;28;19948;-80
2021/12/28 07:30:30;;;;;;;;;;;-2.10;2.90;;;;;;5035417;28;19932;-80
2021/12/28 07:32:56;;;;;;;;;;;-1.80;21.10;;;;;;5034952;28;19925;-80
2021/12/28 07:35:24;;;;;;;;;;;-2.00;24.00;;;;;;5030964;28;19925;-81
2021/12/28 07:37:52;;;;;;;;;;;-1.90;21.60;;;;;;5028176;28;19936;-81
2021/12/28 07:40:19;;;;;;;;;;;-2.40;11.70;;;;;;5027922;28;19972;-81
2021/12/28 07:42:46;;;;;;;;;;;-1.40;1.00;;;;;;5028339;28;19976;-81
2021/12/28 07:45:13;;;;;;;;;;;-1.80;1.00;;;;;;5027766;28;19926;-80
2021/12/28 07:47:40;;;;;;;;;;;-1.90;1.80;;;;;;5027809;28;19932;-81
2021/12/28 07:50:08;;;;;;;;;;;-1.90;1.00;;;;;;5027417;28;19965;-80
2021/12/28 07:52:36;;;;;;;;;;;-1.90;1.00;;;;;;5027343;28;19960;-80
2021/12/28 07:55:04;;;;;;;;;;;-1.90;2.50;;;;;;5026776;28;19960;-82
2021/12/28 07:57:30;;;;;;;;;;;-1.90;1.00;;;;;;5027480;28;19997;-81
2021/12/28 07:59:57;;;;;;;;;;;-1.30;1.00;;;;;;5026979;28;19948;-81
2021/12/28 08:02:23;;;;;;;;;;;-2.00;1.00;;;;;;5027820;28;19932;-80
2021/12/28 08:04:50;;;;;;;;;;;-1.90;1.00;;;;;;5026886;28;19926;-80
2021/12/28 08:07:16;;;;;;;;;;;-1.90;1.00;;;;;;5031107;28;19925;-79
2021/12/28 08:09:44;;;;;;;;;;;-1.90;1.00;;;;;;5034331;28;19929;-79
2021/12/28 08:12:11;;;;;;;;;;;-1.90;1.00;;;;;;5033490;28;19940;-79
2021/12/28 08:14:37;;;;;;;;;;;-1.90;1.00;;;;;;5033535;28;19926;-79
2021/12/28 08:17:03;;;;;;;;;;;-1.90;1.00;;;;;;5033642;28;19925;-81
2021/12/28 08:19:30;;;;;;;;;;;-1.90;2.50;;;;;;5033839;28;19926;-80
2021/12/28 08:21:56;;;;;;;;;;;-1.90;2.00;;;;;;5033559;28;19925;-80
2021/12/28 08:24:23;;;;;;;;;;;-2.10;1.00;;;;;;5035690;28;19925;-79
2021/12/28 08:26:50;;;;;;;;;;;-1.40;13.10;;;;;;5036417;28;19993;-79
2021/12/28 08:29:17;;;;;;;;;;;-1.70;13.70;;;;;;5033945;28;19972;-81
2021/12/28 08:31:43;;;;;;;;;;;-1.20;8.90;;;;;;5029846;28;19933;-80
2021/12/28 08:34:10;;;;;;;;;;;-1.60;1.00;;;;;;5029871;28;19925;-80
2021/12/28 08:36:36;;;;;;;;;;;-2.30;1.00;;;;;;5028883;28;19947;-80
2021/12/28 08:39:03;;;;;;;;;;;-1.20;1.00;;;;;;5028053;28;19925;-80
2021/12/28 08:41:30;;;;;;;;;;;-1.50;1.00;;;;;;5029998;28;19933;-80
2021/12/28 08:43:57;;;;;;;;;;;-1.40;1.00;;;;;;5033027;28;19925;-80
2021/12/28 08:46:24;;;;;;;;;;;-1.40;1.00;;;;;;5032534;28;19926;-80
2021/12/28 08:48:51;;;;;;;;;;;-1.60;1.00;;;;;;5036157;28;19910;-81
2021/12/28 08:51:17;;;;;;;;;;;-1.30;1.00;;;;;;5029624;28;19948;-81
2021/12/28 08:53:44;;;;;;;;;;;-1.20;1.00;;;;;;5027193;28;19948;-81
2021/12/28 08:56:10;;;;;;;;;;;-1.20;1.00;;;;;;5028833;28;19925;-80
2021/12/28 08:58:37;;;;;;;;;;;-1.20;1.00;;;;;;5031577;28;19925;-80
2021/12/28 09:01:05;;;;;;;;;;;-1.60;1.00;;;;;;5029211;28;20312;-81
2021/12/28 09:03:31;;;;;;;;;;;-1.10;1.00;;;;;;5025674;28;19933;-82
2021/12/28 09:05:57;;;;;;;;;;;-1.10;1.00;;;;;;5026221;28;19965;-80
2021/12/28 09:08:24;;;;;;;;;;;-1.30;1.00;;;;;;5025266;28;19925;-80
2021/12/28 09:10:50;;;;;;;;;;;-1.10;1.00;;;;;;5026034;28;19976;-81
2021/12/28 09:13:18;;;;;;;;;;;-1.00;1.00;;;;;;5025268;28;19932;-81
2021/12/28 09:15:44;;;;;;;;;;;-1.10;1.00;;;;;;5025649;28;19925;-81
2021/12/28 09:18:12;;;;;;;;;;;-1.10;1.00;;;;;;5025734;28;19932;-80
2021/12/28 09:20:39;;;;;;;;;;;-1.00;1.00;;;;;;5025484;28;19932;-80
2021/12/28 09:23:05;;;;;;;;;;;-1.00;1.00;;;;;;5025186;28;19933;-81
2021/12/28 09:25:32;;;;;;;;;;;-0.80;1.00;;;;;;5025563;28;19925;-80
2021/12/28 09:27:59;;;;;;;;;;;-0.90;1.00;;;;;;5022516;28;19968;-81
2021/12/28 09:30:25;;;;;;;;;;;0.30;1.00;;;;;;5021565;28;19948;-79
2021/12/28 09:32:52;;;;;;;;;;;-0.80;1.00;;;;;;5022706;28;19976;-80
2021/12/28 09:35:20;;;;;;;;;;;-0.80;1.00;;;;;;5023939;28;20408;-81
2021/12/28 09:37:46;;;;;;;;;;;-0.70;1.00;;;;;;5025282;28;19925;-81
2021/12/28 09:40:13;;;;;;;;;;;-0.70;1.00;;;;;;5024124;28;19961;-81
2021/12/28 09:42:41;;;;;;;;;;;-0.60;1.00;;;;;;5025745;28;20352;-81
2021/12/28 09:45:09;;;;;;;;;;;-0.60;1.00;;;;;;5025865;28;19925;-81
2021/12/28 09:47:36;;;;;;;;;;;-0.50;1.00;;;;;;5027019;28;19925;-79
2021/12/28 09:50:03;;;;;;;;;;;-1.20;1.00;;;;;;5032122;28;19926;-79
2021/12/28 09:52:31;;;;;;;;;;;-0.50;1.00;;;;;;5031375;28;19930;-79
2021/12/28 09:54:57;;;;;;;;;;;-0.60;1.00;;;;;;5030226;28;19956;-81
2021/12/28 09:57:24;;;;;;;;;;;-0.70;1.00;;;;;;5026183;28;19964;-81
2021/12/28 09:59:51;;;;;;;;;;;-0.60;1.00;;;;;;5028312;28;19926;-80
2021/12/28 10:02:17;;;;;;;;;;;-0.60;25.40;;;;;;5024161;28;20442;-80
2021/12/28 10:04:54;;;;;;;;;;;-0.60;44.60;;;;;;5019839;28;19972;-80
2021/12/28 10:07:22;;;;;;;;;;;-0.60;84.30;;;;;;5033458;28;19925;-79
2021/12/28 10:09:50;;;;;;;;;;;-0.60;99.90;;;;;;5032715;28;20028;-81
2021/12/28 10:12:26;;;;;;;;;;;-0.50;99.90;;;;;;5026653;28;19948;-79
2021/12/28 10:14:54;;;;;;;;;;;-0.50;99.90;;;;;;5027169;28;20300;-79
2021/12/28 10:17:24;;;;;;;;;;;-0.50;99.90;;;;;;5033042;28;20009;-80
2021/12/28 10:19:50;;;;;;;;;;;-0.50;98.40;;;;;;5031887;28;19926;-79
2021/12/28 10:22:24;;;;;;;;;;;-0.50;92.30;;;;;;5031212;28;19960;-80
2021/12/28 10:24:53;;;;;;;;;;;-0.40;96.10;;;;;;5027981;28;19926;-80
2021/12/28 10:27:21;;;;;;;;;;;-0.30;91.60;;;;;;5024889;28;19926;-79
2021/12/28 10:29:47;;;;;;;;;;;-0.20;92.60;;;;;;5021356;28;19984;-81
2021/12/28 10:32:21;;;;;;;;;;;-0.10;86.90;;;;;;5022251;28;19925;-80
2021/12/28 10:34:48;;;;;;;;;;;-0.10;68.40;;;;;;5023984;28;19925;-80
2021/12/28 10:37:15;;;;;;;;;;;0.00;49.90;;;;;;5031579;28;19937;-79
2021/12/28 10:39:42;;;;;;;;;;;0.00;23.20;;;;;;5033183;28;19925;-80
2021/12/28 10:42:10;;;;;;;;;;;0.10;26.50;;;;;;5033368;28;19933;-80
2021/12/28 10:44:51;;;;;;;;;;;0.10;33.40;;;;;;5032935;28;19926;-80
2021/12/28 10:47:24;;;;;;;;;;;0.30;16.50;;;;;;5033261;28;19938;-80
2021/12/28 10:49:51;;;;;;;;;;;0.30;1.00;;;;;;5035014;28;19925;-82
2021/12/28 10:52:27;;;;;;;;;;;0.50;1.00;;;;;;5032179;28;19931;-81
2021/12/28 10:55:16;;;;;;;;;;;0.50;1.00;;;;;;5033030;28;19929;-81
2021/12/28 10:57:43;;;;;;;;;;;0.50;1.00;;;;;;5033333;28;19932;-80
2021/12/28 11:00:28;;;;;;;;;;;0.60;1.00;;;;;;5033937;28;19937;-79
2021/12/28 11:03:16;;;;;;;;;;;0.60;1.00;;;;;;5033646;28;19914;-80
2021/12/28 11:05:44;;;;;;;;;;;0.70;1.00;;;;;;5031749;28;19925;-80
2021/12/28 11:08:11;;;;;;;;;;;0.70;1.00;;;;;;5030710;28;20292;-80
2021/12/28 11:10:42;;;;;;;;;;;0.60;1.00;;;;;;5029829;28;19925;-80
2021/12/28 11:13:12;;;;;;;;;;;0.60;1.00;;;;;;5030490;28;19937;-80
2021/12/28 11:15:40;;;;;;;;;;;0.50;1.00;;;;;;5030772;28;19935;-80
2021/12/28 11:18:16;;;;;;;;;;;0.60;1.00;;;;;;5028724;28;19933;-81
2021/12/28 11:20:42;;;;;;;;;;;0.40;1.00;;;;;;5027407;28;19926;-82
2021/12/28 11:23:09;;;;;;;;;;;0.70;1.00;;;;;;5026223;28;19952;-81
2021/12/28 11:25:36;;;;;;;;;;;1.00;1.00;;;;;;5030139;28;19925;-81
2021/12/28 11:28:14;;;;;;;;;;;0.70;1.00;;;;;;5032867;28;19926;-80
2021/12/28 11:30:41;;;;;;;;;;;0.70;1.00;;;;;;5028824;28;19926;-80
2021/12/28 11:33:08;;;;;;;;;;;0.70;1.00;;;;;;5027657;28;19925;-81
2021/12/28 11:35:35;;;;;;;;;;;0.70;1.00;;;;;;5026902;28;19988;-81
2021/12/28 11:38:01;;;;;;;;;;;0.70;1.00;;;;;;5033131;28;19925;-82
2021/12/28 11:40:27;;;;;;;;;;;0.70;1.00;;;;;;5036636;28;19914;-79
2021/12/28 11:42:55;;;;;;;;;;;0.50;1.00;;;;;;5036670;28;19921;-81
2021/12/28 11:45:22;;;;;;;;;;;0.50;1.00;;;;;;5033888;28;19932;-83
2021/12/28 11:47:49;;;;;;;;;;;0.80;1.00;;;;;;5027909;28;19925;-79
2021/12/28 11:50:16;;;;;;;;;;;0.80;1.00;;;;;;5026895;28;19965;-82
2021/12/28 11:52:42;;;;;;;;;;;0.80;1.00;;;;;;5030362;28;19925;-80
2021/12/28 11:55:09;;;;;;;;;;;0.90;1.00;;;;;;5032026;28;19933;-82
2021/12/28 11:57:36;;;;;;;;;;;0.90;1.00;;;;;;5026246;28;19932;-80
2021/12/28 12:00:05;;;;;;;;;;;0.90;1.00;;;;;;5026318;28;19925;-82
2021/12/28 12:02:37;;;;;;;;;;;0.90;1.00;;;;;;5026350;28;19925;-81
2021/12/28 12:05:12;;;;;;;;;;;0.90;1.00;;;;;;5028918;28;19936;-82
2021/12/28 12:07:39;;;;;;;;;;;0.90;1.00;;;;;;5029383;28;19940;-80
2021/12/28 12:10:21;;;;;;;;;;;1.00;1.00;;;;;;5030738;28;19926;-82
2021/12/28 12:12:50;;;;;;;;;;;1.00;1.00;;;;;;5030096;28;19948;-82
2021/12/28 12:15:17;;;;;;;;;;;1.00;1.00;;;;;;5030305;28;20345;-81
2021/12/28 12:17:45;;;;;;;;;;;1.10;1.00;;;;;;5030629;28;19929;-81
2021/12/28 12:20:23;;;;;;;;;;;1.10;1.00;;;;;;5030238;28;19936;-81
2021/12/28 12:22:50;;;;;;;;;;;1.00;1.00;;;;;;5032766;28;19925;-81
2021/12/28 12:25:18;;;;;;;;;;;0.70;1.00;;;;;;5029056;28;19991;-81
2021/12/28 12:27:47;;;;;;;;;;;1.00;1.00;;;;;;5018514;28;20368;-80
2021/12/28 12:30:32;;;;;;;;;;;1.10;1.00;;;;;;5019517;28;20389;-80
2021/12/28 12:33:05;;;;;;;;;;;1.20;1.00;;;;;;5024002;28;19926;-81
2021/12/28 12:35:32;;;;;;;;;;;1.20;1.00;;;;;;5025874;28;19925;-82
2021/12/28 12:37:59;;;;;;;;;;;1.30;1.00;;;;;;5025451;28;20308;-81
2021/12/28 12:40:42;;;;;;;;;;;1.20;1.00;;;;;;5025240;28;20392;-81
2021/12/28 12:43:09;;;;;;;;;;;1.30;1.00;;;;;;5025035;28;19925;-80
2021/12/28 12:45:55;;;;;;;;;;;-0.20;8.80;;;;;;5026696;28;19949;-80
2021/12/28 12:48:31;;;;;;;;;;;1.20;19.40;;;;;;5027083;28;19953;-80
2021/12/28 12:51:13;;;;;;;;;;;1.20;30.40;;;;;;5025769;28;19926;-82
2021/12/28 12:53:43;;;;;;;;;;;1.20;40.90;;;;;;5025078;28;19926;-82
2021/12/28 12:56:13;;;;;;;;;;;1.20;50.50;;;;;;5025731;28;19926;-81
2021/12/28 12:58:40;;;;;;;;;;;1.30;56.10;;;;;;5027698;28;19965;-82
2021/12/28 13:01:06;;;;;;;;;;;1.30;60.40;;;;;;5027616;28;19964;-81
2021/12/28 13:03:34;;;;;;;;;;;1.30;64.80;;;;;;5028465;28;19925;-82
2021/12/28 13:06:01;;;;;;;;;;;1.20;71.50;;;;;;5029305;28;19932;-81
2021/12/28 13:08:27;;;;;;;;;;;1.30;74.90;;;;;;5029536;28;19957;-81
2021/12/28 13:10:54;;;;;;;;;;;1.40;76.20;;;;;;5029195;28;19926;-81
2021/12/28 13:13:20;;;;;;;;;;;1.30;80.70;;;;;;5028492;28;20356;-82
2021/12/28 13:15:47;;;;;;;;;;;1.40;83.90;;;;;;5031822;28;19948;-81
2021/12/28 13:18:13;;;;;;;;;;;1.40;80.80;;;;;;5036112;28;20029;-83
2021/12/28 13:20:41;;;;;;;;;;;1.40;82.50;;;;;;5030220;28;20289;-81
2021/12/28 13:23:08;;;;;;;;;;;1.10;88.90;;;;;;5030410;28;20043;-82
2021/12/28 13:25:37;;;;;;;;;;;1.50;84.20;;;;;;5033515;28;20025;-82
2021/12/28 13:28:06;;;;;;;;;;;1.50;89.70;;;;;;5031647;28;19925;-80
2021/12/28 13:30:34;;;;;;;;;;;1.50;89.20;;;;;;5031046;28;20288;-82
2021/12/28 13:33:01;;;;;;;;;;;1.50;86.30;;;;;;5030395;28;19988;-80
2021/12/28 13:35:29;;;;;;;;;;;1.50;85.40;;;;;;5032152;28;19925;-81
2021/12/28 13:37:57;;;;;;;;;;;1.60;88.50;;;;;;5028686;28;19929;-82
2021/12/28 13:40:26;;;;;;;;;;;1.60;84.60;;;;;;5028872;28;19925;-82
2021/12/28 13:43:04;;;;;;;;;;;1.60;87.30;;;;;;5027644;28;19980;-82
2021/12/28 13:45:33;;;;;;;;;;;1.60;87.00;;;;;;5028511;28;19932;-81
2021/12/28 13:47:59;;;;;;;;;;;1.50;77.90;;;;;;5029405;28;19929;-81
2021/12/28 13:50:26;;;;;;;;;;;1.70;72.00;;;;;;5028937;28;19930;-82
2021/12/28 13:52:54;;;;;;;;;;;1.70;69.30;;;;;;5028385;28;20276;-81
2021/12/28 13:55:25;;;;;;;;;;;1.70;69.20;;;;;;5027171;28;19926;-81
2021/12/28 13:57:52;;;;;;;;;;;1.70;59.50;;;;;;5027249;28;19933;-80
2021/12/28 14:00:23;;;;;;;;;;;1.70;56.50;;;;;;5024536;28;19932;-82
2021/12/28 14:02:57;;;;;;;;;;;1.80;51.40;;;;;;5020427;28;19925;-81
2021/12/28 14:05:24;;;;;;;;;;;1.80;59.70;;;;;;5023581;28;19979;-81
2021/12/28 14:07:51;;;;;;;;;;;1.80;56.40;;;;;;5025311;28;19973;-82
2021/12/28 14:10:19;;;;;;;;;;;1.80;59.30;;;;;;5031049;28;19926;-82
2021/12/28 14:13:02;;;;;;;;;;;1.80;57.30;;;;;;5025395;28;21287;-82
2021/12/28 14:15:29;;;;;;;;;;;1.80;59.70;;;;;;5027634;28;19929;-82
2021/12/28 14:17:55;;;;;;;;;;;2.40;71.30;;;;;;5026492;28;19948;-82
2021/12/28 14:20:26;;;;;;;;;;;1.80;69.80;;;;;;5027778;28;19939;-82
2021/12/28 14:22:53;;;;;;;;;;;1.80;74.00;;;;;;5026733;28;19925;-81
2021/12/28 14:25:20;;;;;;;;;;;1.70;70.80;;;;;;5026970;28;19973;-81
2021/12/28 14:27:54;;;;;;;;;;;1.90;62.20;;;;;;5029901;28;19929;-79
2021/12/28 14:30:24;;;;;;;;;;;1.90;63.20;;;;;;5034668;28;19925;-80
2021/12/28 14:32:51;;;;;;;;;;;1.50;71.40;;;;;;5033133;28;19927;-79
2021/12/28 14:35:19;;;;;;;;;;;1.90;74.20;;;;;;5033129;28;19924;-81
2021/12/28 14:37:48;;;;;;;;;;;1.90;75.00;;;;;;5028696;28;19981;-83
2021/12/28 14:40:16;;;;;;;;;;;2.00;77.60;;;;;;5024391;28;19976;-81
2021/12/28 14:42:44;;;;;;;;;;;1.90;75.60;;;;;;5020365;28;19995;-81
2021/12/28 14:45:12;;;;;;;;;;;1.90;81.80;;;;;;5016441;28;20399;-81
2021/12/28 14:47:41;;;;;;;;;;;1.90;86.40;;;;;;5017475;28;19980;-82
2021/12/28 14:50:09;;;;;;;;;;;1.90;94.00;;;;;;5017262;28;20351;-81
2021/12/28 14:52:37;;;;;;;;;;;1.90;98.60;;;;;;5017166;28;19929;-81
2021/12/28 14:55:05;;;;;;;;;;;1.80;99.90;;;;;;5017007;28;19998;-81
2021/12/28 14:57:33;;;;;;;;;;;2.00;99.90;;;;;;5018417;28;19933;-82
2021/12/28 15:00:01;;;;;;;;;;;1.90;99.90;;;;;;5018729;28;19972;-82
2021/12/28 15:02:27;;;;;;;;;;;1.90;99.90;;;;;;5017984;28;19925;-82
2021/12/28 15:04:56;;;;;;;;;;;1.90;99.90;;;;;;5019167;28;20400;-81
2021/12/28 15:07:26;;;;;;;;;;;1.90;99.90;;;;;;5017379;28;19971;-82
2021/12/28 15:09:53;;;;;;;;;;;1.80;99.90;;;;;;5017724;28;19984;-82
2021/12/28 15:12:20;;;;;;;;;;;1.70;99.90;;;;;;5018397;28;19925;-82
2021/12/28 15:14:47;;;;;;;;;;;1.90;99.90;;;;;;5020150;28;20269;-81
2021/12/28 15:17:14;;;;;;;;;;;1.50;99.90;;;;;;5019029;28;19933;-82
2021/12/28 15:19:41;;;;;;;;;;;1.80;99.90;;;;;;5018726;28;20403;-82
2021/12/28 15:22:09;;;;;;;;;;;1.80;99.90;;;;;;5026360;28;20040;-80
2021/12/28 15:24:37;;;;;;;;;;;1.80;99.90;;;;;;5025412;28;19929;-81
2021/12/28 15:27:03;;;;;;;;;;;1.80;99.90;;;;;;5027872;28;20031;-79
2021/12/28 15:29:30;;;;;;;;;;;1.80;99.90;;;;;;5018436;28;19965;-81
2021/12/28 15:31:57;;;;;;;;;;;1.90;99.90;;;;;;5021169;28;19925;-81
2021/12/28 15:34:24;;;;;;;;;;;1.80;99.90;;;;;;5027339;28;19925;-81
2021/12/28 15:36:51;;;;;;;;;;;0.60;99.90;;;;;;5027646;28;19936;-80
2021/12/28 15:39:19;;;;;;;;;;;1.60;99.90;;;;;;5031614;28;19937;-81
2021/12/28 15:41:46;;;;;;;;;;;1.70;99.90;;;;;;5033591;28;19929;-81
2021/12/28 15:44:13;;;;;;;;;;;1.80;99.90;;;;;;5032706;28;19925;-80
2021/12/28 15:46:41;;;;;;;;;;;1.70;99.90;;;;;;5020672;28;20001;-81
2021/12/28 15:49:08;;;;;;;;;;;1.70;99.90;;;;;;5020968;28;20019;-82
2021/12/28 15:51:35;;;;;;;;;;;1.80;99.90;;;;;;5021561;28;19980;-79
2021/12/28 15:54:02;;;;;;;;;;;1.70;99.90;;;;;;5020948;28;19972;-81
2021/12/28 15:56:29;;;;;;;;;;;1.80;99.90;;;;;;5019757;28;19961;-80
2021/12/28 15:58:56;;;;;;;;;;;1.70;99.90;;;;;;5021100;28;20458;-81
2021/12/28 16:01:23;;;;;;;;;;;1.80;99.90;;;;;;5023834;28;19926;-80
2021/12/28 16:03:51;;;;;;;;;;;1.80;99.90;;;;;;5021538;28;19926;-81
2021/12/28 16:06:17;;;;;;;;;;;1.80;99.90;;;;;;5025021;28;19930;-82
2021/12/28 16:08:45;;;;;;;;;;;1.80;99.90;;;;;;5041043;28;19914;-80
2021/12/28 16:11:11;;;;;;;;;;;1.80;99.90;;;;;;5030562;28;20047;-82
2021/12/28 16:13:40;;;;;;;;;;;1.80;99.90;;;;;;5020703;28;19929;-81
2021/12/28 16:16:06;;;;;;;;;;;1.90;99.90;;;;;;5021600;28;19953;-82
2021/12/28 16:18:33;;;;;;;;;;;1.90;99.90;;;;;;5020934;28;20003;-81
2021/12/28 16:21:00;;;;;;;;;;;1.90;99.90;;;;;;5021151;28;19972;-82
2021/12/28 16:23:26;;;;;;;;;;;1.90;99.90;;;;;;5022493;28;19937;-83
2021/12/28 16:25:53;;;;;;;;;;;2.00;99.90;;;;;;5030988;28;19925;-82
2021/12/28 16:28:19;;;;;;;;;;;2.00;99.90;;;;;;5035172;28;19955;-80
2021/12/28 16:30:47;;;;;;;;;;;2.00;99.90;;;;;;5031690;28;20388;-83
2021/12/28 16:33:14;;;;;;;;;;;1.90;99.90;;;;;;5020906;28;19925;-83
2021/12/28 16:35:40;;;;;;;;;;;2.10;99.90;;;;;;5019503;28;20415;-80
2021/12/28 16:38:07;;;;;;;;;;;2.00;99.90;;;;;;5020254;28;20311;-81
2021/12/28 16:40:34;;;;;;;;;;;2.10;99.90;;;;;;5020122;28;19980;-80
2021/12/28 16:43:01;;;;;;;;;;;2.10;99.90;;;;;;5019335;28;19972;-80
2021/12/28 16:45:28;;;;;;;;;;;2.20;99.90;;;;;;5018821;28;20376;-82
2021/12/28 16:47:56;;;;;;;;;;;2.30;99.90;;;;;;5019101;28;19965;-81
2021/12/28 16:50:23;;;;;;;;;;;2.30;99.90;;;;;;5018758;28;19972;-81
2021/12/28 16:52:50;;;;;;;;;;;2.30;99.90;;;;;;5019992;28;19968;-81
2021/12/28 16:55:17;;;;;;;;;;;2.40;99.90;;;;;;5023580;28;19929;-79
2021/12/28 16:57:43;;;;;;;;;;;2.40;99.90;;;;;;5033129;28;19952;-80
2021/12/28 17:00:11;;;;;;;;;;;2.40;99.90;;;;;;5037605;28;19925;-83
2021/12/28 17:02:38;;;;;;;;;;;2.40;99.90;;;;;;5024038;28;19926;-80
2021/12/28 17:05:07;;;;;;;;;;;2.40;99.90;;;;;;5021537;28;19926;-82